createdAt,value
2022-11-04T00:00:18.321Z,2.19
2022-11-04T00:02:45.147Z,2.35
2022-11-04T00:05:11.974Z,2.64
2022-11-04T00:07:57.292Z,2.47
2022-11-04T00:10:44.058Z,2.70
2022-11-04T00:13:11.158Z,2.42
2022-11-04T00:15:56.758Z,2.49
2022-11-04T00:18:23.659Z,2.10
2022-11-04T00:21:08.811Z,1.92
2022-11-04T00:23:54.123Z,2.12
2022-11-04T00:26:40.210Z,2.02
2022-11-04T00:29:07.319Z,1.82
2022-11-04T00:31:52.928Z,1.86
2022-11-04T00:34:19.763Z,2.19
2022-11-04T00:36:46.941Z,2.11
2022-11-04T00:39:13.809Z,2.03
2022-11-04T00:41:40.638Z,2.29
2022-11-04T00:44:07.376Z,2.37
2022-11-04T00:46:34.693Z,2.28
2022-11-04T00:49:01.796Z,2.05
2022-11-04T00:51:28.635Z,2.19
2022-11-04T00:53:56.083Z,2.28
2022-11-04T00:56:23.156Z,2.48
2022-11-04T00:58:50.389Z,2.12
2022-11-04T01:01:18.281Z,1.93
2022-11-04T01:03:47.339Z,1.80
2022-11-04T01:06:14.332Z,1.73
2022-11-04T01:08:41.373Z,1.79
2022-11-04T01:11:09.531Z,1.70
2022-11-04T01:13:36.538Z,1.80
2022-11-04T01:16:06.009Z,2.06
2022-11-04T01:18:32.955Z,2.22
2022-11-04T01:21:07.055Z,1.95
2022-11-04T01:23:36.943Z,2.01
2022-11-04T01:26:07.868Z,2.00
2022-11-04T01:28:34.477Z,2.00
2022-11-04T01:31:09.962Z,1.66
2022-11-04T01:33:37.310Z,1.41
2022-11-04T01:36:06.191Z,1.90
2022-11-04T01:38:33.168Z,1.87
2022-11-04T01:40:59.895Z,1.98
2022-11-04T01:43:46.715Z,1.82
2022-11-04T01:46:19.791Z,1.84
2022-11-04T01:48:46.882Z,1.66
2022-11-04T01:51:14.312Z,1.43
2022-11-04T01:53:42.914Z,1.47
2022-11-04T01:56:14.708Z,1.46
2022-11-04T01:58:47.336Z,1.66
2022-11-04T02:01:15.292Z,1.87
2022-11-04T02:03:54.672Z,1.88
2022-11-04T02:06:23.429Z,2.03
2022-11-04T02:08:50.826Z,1.58
2022-11-04T02:11:36.347Z,1.61
2022-11-04T02:14:03.301Z,1.37
2022-11-04T02:16:48.908Z,1.52
2022-11-04T02:19:46.451Z,1.68
2022-11-04T02:22:34.429Z,1.78
2022-11-04T02:25:01.141Z,1.66
2022-11-04T02:27:40.165Z,1.43
2022-11-04T02:30:11.130Z,1.19
2022-11-04T02:33:00.096Z,1.24
2022-11-04T02:35:43.630Z,1.22
2022-11-04T02:38:31.267Z,1.50
2022-11-04T02:41:06.989Z,1.66
2022-11-04T02:43:40.278Z,1.59
2022-11-04T02:46:31.796Z,1.62
2022-11-04T02:49:08.297Z,1.48
2022-11-04T02:51:45.249Z,1.23
2022-11-04T02:54:22.887Z,1.18
2022-11-04T02:56:51.423Z,0.97
2022-11-04T02:59:34.769Z,1.11
2022-11-04T03:02:04.525Z,0.97
2022-11-04T03:04:34.308Z,1.04
2022-11-04T03:07:02.108Z,1.13
2022-11-04T03:09:29.856Z,1.42
2022-11-04T03:12:02.768Z,1.47
2022-11-04T03:14:51.777Z,1.47
2022-11-04T03:17:22.975Z,1.22
2022-11-04T03:20:00.297Z,1.23
2022-11-04T03:22:29.813Z,1.15
2022-11-04T03:24:57.131Z,1.24
2022-11-04T03:27:30.819Z,1.43
2022-11-04T03:30:14.733Z,1.14
2022-11-04T03:33:04.403Z,1.42
2022-11-04T03:35:31.642Z,1.24
2022-11-04T03:37:58.868Z,1.26
2022-11-04T03:40:26.048Z,1.04
2022-11-04T03:42:59.415Z,1.05
2022-11-04T03:45:26.997Z,1.05
2022-11-04T03:47:53.984Z,1.23
2022-11-04T03:50:32.213Z,1.26
2022-11-04T03:52:59.442Z,1.18
2022-11-04T03:55:37.568Z,0.80
2022-11-04T03:58:13.236Z,0.86
2022-11-04T04:00:48.971Z,0.90
2022-11-04T04:03:23.934Z,0.98
2022-11-04T04:05:53.664Z,0.76
2022-11-04T04:08:43.845Z,0.96
2022-11-04T04:11:21.481Z,1.14
2022-11-04T04:14:02.085Z,1.25
2022-11-04T04:16:42.790Z,1.13
2022-11-04T04:19:14.890Z,1.12
2022-11-04T04:21:44.879Z,0.75
2022-11-04T04:24:31.329Z,0.54
2022-11-04T04:27:17.237Z,0.59
2022-11-04T04:29:44.673Z,0.63
2022-11-04T04:32:12.649Z,0.93
2022-11-04T04:34:39.520Z,0.98
2022-11-04T04:37:15.821Z,0.98
2022-11-04T04:40:04.513Z,0.82
2022-11-04T04:42:51.838Z,0.75
2022-11-04T04:45:33.725Z,0.89
2022-11-04T04:48:00.796Z,0.88
2022-11-04T04:50:39.994Z,0.90
2022-11-04T04:53:07.190Z,1.09
2022-11-04T04:55:39.018Z,0.96
2022-11-04T04:58:09.251Z,0.95
2022-11-04T05:00:36.207Z,0.59
2022-11-04T05:03:02.970Z,0.65
2022-11-04T05:05:29.751Z,0.98
2022-11-04T05:07:56.461Z,1.05
2022-11-04T05:10:23.217Z,1.01
2022-11-04T05:13:08.477Z,0.85
2022-11-04T05:15:35.385Z,0.80
2022-11-04T05:18:02.963Z,0.93
2022-11-04T05:20:30.596Z,1.03
2022-11-04T05:22:57.433Z,1.06
2022-11-04T05:25:24.196Z,0.91
2022-11-04T05:27:51.007Z,1.04
2022-11-04T05:30:18.101Z,1.10
2022-11-04T05:32:44.832Z,1.09
2022-11-04T05:35:11.664Z,1.13
2022-11-04T05:37:38.530Z,1.13
2022-11-04T05:40:05.917Z,0.98
2022-11-04T05:42:32.699Z,1.16
2022-11-04T05:44:59.466Z,1.04
2022-11-04T05:47:26.239Z,1.20
2022-11-04T05:49:53.123Z,1.23
2022-11-04T05:52:20.023Z,1.06
2022-11-04T05:54:46.792Z,0.98
2022-11-04T05:57:13.515Z,0.98
2022-11-04T05:59:40.319Z,0.77
2022-11-04T06:02:07.853Z,0.89
2022-11-04T06:04:35.103Z,0.78
2022-11-04T06:07:01.984Z,0.64
2022-11-04T06:09:40.637Z,0.86
2022-11-04T06:12:15.124Z,0.74
2022-11-04T06:14:44.964Z,0.73
2022-11-04T06:17:19.814Z,0.95
2022-11-04T06:19:46.763Z,1.14
2022-11-04T06:22:15.035Z,1.03
2022-11-04T06:24:42.271Z,1.09
2022-11-04T06:27:09.780Z,1.24
2022-11-04T06:29:40.133Z,1.48
2022-11-04T06:32:10.869Z,1.62
2022-11-04T06:34:38.050Z,1.60
2022-11-04T06:37:05.358Z,1.70
2022-11-04T06:39:32.185Z,1.77
2022-11-04T06:42:02.257Z,1.87
2022-11-04T06:44:29.563Z,1.98
2022-11-04T06:46:56.344Z,2.16
2022-11-04T06:49:23.978Z,2.26
2022-11-04T06:51:50.869Z,2.31
2022-11-04T06:54:18.220Z,2.25
2022-11-04T06:56:45.426Z,2.48
2022-11-04T06:59:17.203Z,2.39
2022-11-04T07:01:44.246Z,2.29
2022-11-04T07:04:11.123Z,2.23
2022-11-04T07:06:39.806Z,2.17
2022-11-04T07:09:11.887Z,2.12
2022-11-04T07:11:38.707Z,2.27
2022-11-04T07:14:05.508Z,2.33
2022-11-04T07:16:32.222Z,2.50
2022-11-04T07:18:59.020Z,2.44
2022-11-04T07:21:26.031Z,2.38
2022-11-04T07:23:52.938Z,2.29
2022-11-04T07:26:19.844Z,2.19
2022-11-04T07:28:46.606Z,2.22
2022-11-04T07:31:14.189Z,2.07
2022-11-04T07:33:41.390Z,2.07
2022-11-04T07:36:11.684Z,2.14
2022-11-04T07:38:38.498Z,2.25
2022-11-04T07:41:05.340Z,2.34
2022-11-04T07:43:32.163Z,2.30
2022-11-04T07:46:07.413Z,2.33
2022-11-04T07:48:35.446Z,2.34
2022-11-04T07:51:02.807Z,2.25
2022-11-04T07:53:30.455Z,2.26
2022-11-04T07:55:57.779Z,2.24
2022-11-04T07:58:25.822Z,2.14
2022-11-04T08:00:58.638Z,2.23
2022-11-04T08:03:25.509Z,1.93
2022-11-04T08:05:59.432Z,2.03
2022-11-04T08:08:26.830Z,2.14
2022-11-04T08:11:01.238Z,2.14
2022-11-04T08:13:32.396Z,2.32
2022-11-04T08:16:03.841Z,2.51
2022-11-04T08:18:32.271Z,2.66
2022-11-04T08:20:59.085Z,2.81
2022-11-04T08:23:26.177Z,2.77
2022-11-04T08:25:52.948Z,2.79
2022-11-04T08:28:19.842Z,3.02
2022-11-04T08:31:02.226Z,3.17
2022-11-04T08:33:31.823Z,3.20
2022-11-04T08:36:07.605Z,3.42
2022-11-04T08:38:34.522Z,3.54
2022-11-04T08:41:03.982Z,3.59
2022-11-04T08:43:31.194Z,3.70
2022-11-04T08:45:58.511Z,3.77
2022-11-04T08:48:25.558Z,3.80
2022-11-04T08:50:55.080Z,3.87
2022-11-04T08:53:22.182Z,3.94
2022-11-04T08:55:49.035Z,3.96
2022-11-04T08:58:16.332Z,4.04
2022-11-04T09:00:43.184Z,4.12
2022-11-04T09:03:10.404Z,4.17
2022-11-04T09:05:44.934Z,4.24
2022-11-04T09:08:13.328Z,4.30
2022-11-04T09:10:47.427Z,4.37
2022-11-04T09:13:15.699Z,4.36
2022-11-04T09:15:43.434Z,4.46
2022-11-04T09:18:10.594Z,4.52
2022-11-04T09:20:41.545Z,4.57
2022-11-04T09:23:09.181Z,4.65
2022-11-04T09:25:36.451Z,4.69
2022-11-04T09:28:04.700Z,4.76
2022-11-04T09:30:31.650Z,4.82
2022-11-04T09:32:58.535Z,4.83
2022-11-04T09:35:27.482Z,4.91
2022-11-04T09:37:54.985Z,4.98
2022-11-04T09:40:24.348Z,5.01
2022-11-04T09:43:22.022Z,5.00
2022-11-04T09:45:48.788Z,5.10
2022-11-04T09:48:45.921Z,5.17
2022-11-04T09:51:26.564Z,5.19
2022-11-04T09:54:04.896Z,5.22
2022-11-04T09:56:39.652Z,5.22
2022-11-04T09:59:06.722Z,5.22
2022-11-04T10:01:47.180Z,5.37
2022-11-04T10:04:44.690Z,5.41
2022-11-04T10:07:23.841Z,5.41
2022-11-04T10:10:09.333Z,5.52
2022-11-04T10:13:17.589Z,5.62
2022-11-04T10:15:47.979Z,5.65
2022-11-04T10:18:33.553Z,5.74
2022-11-04T10:21:25.553Z,5.76
2022-11-04T10:24:01.605Z,5.85
2022-11-04T10:26:41.978Z,5.89
2022-11-04T10:29:29.243Z,5.88
2022-11-04T10:31:57.576Z,6.00
2022-11-04T10:34:32.744Z,6.08
2022-11-04T10:37:00.725Z,6.23
2022-11-04T10:39:33.317Z,6.27
2022-11-04T10:42:00.298Z,6.31
2022-11-04T10:44:29.251Z,6.43
2022-11-04T10:47:11.184Z,6.49
2022-11-04T10:52:49.122Z,6.71
2022-11-04T10:55:46.016Z,6.64
2022-11-04T10:58:28.872Z,6.81
2022-11-04T11:00:59.092Z,7.00
2022-11-04T11:03:31.864Z,7.32
2022-11-04T11:06:16.793Z,7.54
2022-11-04T11:08:44.396Z,7.74
2022-11-04T11:11:12.715Z,7.86
2022-11-04T11:13:44.857Z,7.97
2022-11-04T11:16:13.121Z,8.00
2022-11-04T11:18:41.650Z,8.07
2022-11-04T11:21:23.397Z,8.10
2022-11-04T11:23:51.523Z,8.21
2022-11-04T11:26:20.251Z,8.27
2022-11-04T11:28:59.232Z,8.33
2022-11-04T11:31:26.913Z,8.34
2022-11-04T11:33:59.953Z,8.39
2022-11-04T11:36:34.442Z,8.45
2022-11-04T11:39:01.611Z,8.52
2022-11-04T11:41:31.659Z,8.50
2022-11-04T11:44:02.123Z,8.61
2022-11-04T11:46:31.514Z,8.59
2022-11-04T11:49:01.594Z,8.68
2022-11-04T11:51:33.183Z,8.76
2022-11-04T11:54:08.536Z,8.79
2022-11-04T11:57:07.297Z,8.85
2022-11-04T12:02:54.737Z,9.07
2022-11-04T12:11:33.855Z,9.39
2022-11-04T12:14:05.790Z,9.53
2022-11-04T12:17:15.003Z,9.67
2022-11-04T12:19:51.899Z,10.27
2022-11-04T12:22:38.091Z,10.65
2022-11-04T12:25:19.779Z,11.06
2022-11-04T12:28:24.443Z,11.07
2022-11-04T12:31:03.835Z,11.64
2022-11-04T12:33:51.387Z,11.40
2022-11-04T12:36:52.291Z,12.04
2022-11-04T12:39:56.501Z,11.67
2022-11-04T12:42:36.087Z,12.31
2022-11-04T12:45:26.726Z,11.65
2022-11-04T12:47:55.591Z,11.96
2022-11-04T12:51:01.677Z,12.96
2022-11-04T12:53:55.851Z,12.94
2022-11-04T12:56:28.014Z,13.51
2022-11-04T12:59:13.910Z,13.14
2022-11-04T13:02:04.779Z,12.26
2022-11-04T13:04:47.806Z,11.59
2022-11-04T13:07:20.480Z,11.46
2022-11-04T13:09:52.061Z,10.97
2022-11-04T13:12:22.115Z,11.14
2022-11-04T13:14:59.330Z,10.79
2022-11-04T13:17:30.117Z,10.37
2022-11-04T13:20:05.590Z,10.68
2022-11-04T13:22:35.075Z,10.68
2022-11-04T13:25:28.116Z,10.38
2022-11-04T13:27:55.037Z,9.94
2022-11-04T13:30:38.037Z,10.00
2022-11-04T13:33:12.477Z,9.87
2022-11-04T13:36:02.035Z,10.11
2022-11-04T13:38:34.695Z,10.89
2022-11-04T13:41:11.414Z,10.96
2022-11-04T13:43:41.937Z,11.21
2022-11-04T13:46:10.014Z,11.79
2022-11-04T13:48:41.107Z,12.25
2022-11-04T13:51:09.195Z,12.33
2022-11-04T13:53:55.262Z,12.62
2022-11-04T13:56:41.608Z,13.34
2022-11-04T13:59:20.672Z,13.72
2022-11-04T14:01:47.652Z,13.64
2022-11-04T14:04:14.418Z,14.45
2022-11-04T14:06:53.285Z,14.55
2022-11-04T14:09:35.405Z,13.57
2022-11-04T14:12:14.181Z,14.12
2022-11-04T14:14:43.262Z,13.76
2022-11-04T14:17:33.325Z,15.07
2022-11-04T14:20:00.945Z,14.86
2022-11-04T14:22:32.015Z,14.29
2022-11-04T14:25:01.485Z,14.31
2022-11-04T14:27:31.906Z,13.87
2022-11-04T14:29:58.976Z,13.51
2022-11-04T14:32:33.960Z,13.48
2022-11-04T14:35:03.695Z,13.41
2022-11-04T14:37:34.739Z,13.67
2022-11-04T14:40:02.124Z,13.11
2022-11-04T14:42:50.714Z,12.16
2022-11-04T14:45:24.590Z,11.62
2022-11-04T14:47:54.676Z,11.07
2022-11-04T14:50:25.401Z,10.89
2022-11-04T14:52:55.891Z,10.55
2022-11-04T14:55:26.274Z,10.40
2022-11-04T14:57:54.947Z,10.10
2022-11-04T15:00:34.376Z,9.94
2022-11-04T15:03:19.302Z,9.74
2022-11-04T15:06:00.788Z,9.80
2022-11-04T15:08:35.453Z,9.73
2022-11-04T15:11:16.910Z,9.69
2022-11-04T15:13:51.020Z,9.74
2022-11-04T15:16:26.217Z,9.59
2022-11-04T15:18:54.536Z,9.62
2022-11-04T15:21:21.608Z,9.63
2022-11-04T15:23:51.478Z,9.51
2022-11-04T15:26:33.545Z,9.53
2022-11-04T15:29:02.941Z,9.41
2022-11-04T15:31:34.227Z,9.40
2022-11-04T15:34:04.887Z,9.22
2022-11-04T15:36:35.585Z,9.25
2022-11-04T15:39:06.140Z,9.28
2022-11-04T15:41:52.237Z,9.39
2022-11-04T15:44:23.014Z,9.29
2022-11-04T15:46:52.269Z,9.28
2022-11-04T15:49:27.026Z,9.16
2022-11-04T15:51:58.692Z,9.00
2022-11-04T15:54:33.266Z,8.92
2022-11-04T15:57:04.737Z,9.00
2022-11-04T15:59:33.572Z,8.96
2022-11-04T16:02:02.349Z,8.80
2022-11-04T16:04:29.762Z,8.82
2022-11-04T16:07:07.822Z,8.71
2022-11-04T16:09:49.465Z,8.52
2022-11-04T16:12:31.151Z,8.54
2022-11-04T16:14:59.024Z,8.32
2022-11-04T16:17:26.761Z,8.26
2022-11-04T16:19:56.045Z,8.39
2022-11-04T16:22:31.940Z,8.13
2022-11-04T16:25:00.626Z,8.03
2022-11-04T16:27:28.025Z,8.00
2022-11-04T16:30:17.966Z,8.10
2022-11-04T16:32:55.941Z,8.14
2022-11-04T16:35:25.143Z,7.99
2022-11-04T16:37:58.797Z,8.12
2022-11-04T16:40:26.075Z,7.94
2022-11-04T16:42:53.651Z,7.86
2022-11-04T16:45:34.687Z,7.97
2022-11-04T16:48:01.579Z,7.94
2022-11-04T16:50:29.220Z,7.83
2022-11-04T16:52:56.408Z,7.96
2022-11-04T16:55:23.947Z,7.88
2022-11-04T16:58:03.532Z,7.93
2022-11-04T17:00:33.744Z,7.75
2022-11-04T17:03:02.402Z,7.69
2022-11-04T17:05:29.339Z,7.68
2022-11-04T17:08:00.164Z,7.57
2022-11-04T17:10:31.716Z,7.61
2022-11-04T17:12:58.550Z,7.66
2022-11-04T17:15:26.020Z,7.66
2022-11-04T17:17:53.004Z,7.65
2022-11-04T17:20:20.319Z,7.64
2022-11-04T17:22:48.111Z,7.49
2022-11-04T17:25:24.120Z,7.59
2022-11-04T17:27:51.385Z,7.43
2022-11-04T17:30:19.609Z,7.47
2022-11-04T17:32:46.853Z,7.55
2022-11-04T17:35:14.493Z,7.57
2022-11-04T17:37:41.729Z,7.37
2022-11-04T17:40:11.462Z,7.31
2022-11-04T17:42:56.959Z,7.16
2022-11-04T17:45:23.964Z,7.05
2022-11-04T17:47:50.861Z,7.00
2022-11-04T17:50:18.604Z,6.87
2022-11-04T17:52:49.251Z,6.85
2022-11-04T17:55:18.129Z,6.80
2022-11-04T17:57:47.756Z,6.92
2022-11-04T18:00:15.379Z,6.83
2022-11-04T18:02:43.236Z,6.87
2022-11-04T18:05:10.206Z,6.83
2022-11-04T18:07:37.065Z,6.71
2022-11-04T18:10:04.240Z,6.80
2022-11-04T18:12:37.184Z,6.72
2022-11-04T18:15:12.532Z,6.75
2022-11-04T18:17:40.914Z,6.73
2022-11-04T18:20:13.874Z,6.83
2022-11-04T18:22:41.765Z,6.83
2022-11-04T18:25:09.484Z,6.88
2022-11-04T18:27:36.962Z,6.93
2022-11-04T18:30:04.111Z,6.87
2022-11-04T18:32:31.022Z,6.66
2022-11-04T18:34:57.914Z,6.83
2022-11-04T18:37:25.063Z,6.91
2022-11-04T18:39:51.948Z,6.85
2022-11-04T18:42:18.835Z,6.89
2022-11-04T18:44:45.650Z,6.87
2022-11-04T18:47:14.081Z,6.83
2022-11-04T18:49:41.093Z,6.69
2022-11-04T18:52:07.870Z,6.66
2022-11-04T18:54:34.748Z,6.67
2022-11-04T18:57:01.544Z,6.74
2022-11-04T18:59:28.301Z,6.66
2022-11-04T19:01:55.137Z,6.67
2022-11-04T19:04:22.074Z,6.71
2022-11-04T19:06:48.849Z,6.75
2022-11-04T19:09:46.023Z,6.70
2022-11-04T19:12:22.956Z,6.72
2022-11-04T19:14:49.839Z,6.85
2022-11-04T19:17:16.954Z,6.74
2022-11-04T19:19:44.013Z,6.81
2022-11-04T19:22:12.442Z,6.82
2022-11-04T19:24:39.976Z,6.76
2022-11-04T19:27:07.407Z,6.77
2022-11-04T19:29:34.295Z,6.73
2022-11-04T19:32:01.144Z,6.68
2022-11-04T19:34:28.013Z,6.61
2022-11-04T19:36:54.795Z,6.60
2022-11-04T19:39:21.751Z,6.63
2022-11-04T19:42:07.090Z,6.56
2022-11-04T19:44:33.923Z,6.53
2022-11-04T19:47:00.679Z,6.50
2022-11-04T19:49:31.591Z,6.38
2022-11-04T19:51:59.209Z,6.36
2022-11-04T19:54:27.184Z,6.28
2022-11-04T19:56:55.085Z,6.29
2022-11-04T19:59:23.823Z,6.23
2022-11-04T20:01:50.748Z,6.04
2022-11-04T20:04:17.714Z,5.94
2022-11-04T20:06:44.459Z,5.81
2022-11-04T20:09:11.371Z,5.79
2022-11-04T20:12:00.018Z,5.88
2022-11-04T20:14:28.198Z,5.97
2022-11-04T20:16:55.833Z,5.81
2022-11-04T20:19:23.420Z,5.91
2022-11-04T20:21:50.373Z,5.90
2022-11-04T20:24:17.480Z,5.90
2022-11-04T20:26:44.390Z,5.81
2022-11-04T20:29:22.506Z,5.77
2022-11-04T20:31:49.293Z,5.58
2022-11-04T20:34:15.988Z,5.68
2022-11-04T20:36:43.017Z,5.70
2022-11-04T20:39:20.127Z,5.69
2022-11-04T20:41:47.103Z,5.73
2022-11-04T20:44:15.022Z,5.77
2022-11-04T20:46:43.128Z,5.55
2022-11-04T20:49:10.176Z,5.49
2022-11-04T20:51:41.828Z,5.62
2022-11-04T20:54:11.260Z,5.37
2022-11-04T20:56:40.049Z,5.26
2022-11-04T20:59:09.501Z,5.28
2022-11-04T21:01:38.536Z,5.02
2022-11-04T21:04:07.619Z,5.00
2022-11-04T21:06:37.752Z,4.95
2022-11-04T21:09:05.592Z,5.11
2022-11-04T21:11:32.532Z,5.27
2022-11-04T21:13:59.582Z,5.36
2022-11-04T21:16:26.538Z,5.22
2022-11-04T21:18:54.611Z,5.17
2022-11-04T21:21:21.377Z,5.08
2022-11-04T21:23:48.758Z,4.97
2022-11-04T21:26:24.454Z,5.01
2022-11-04T21:28:58.417Z,4.99
2022-11-04T21:31:27.380Z,5.15
2022-11-04T21:33:55.051Z,5.23
2022-11-04T21:36:22.523Z,5.22
2022-11-04T21:38:49.832Z,5.33
2022-11-04T21:41:18.832Z,5.35
2022-11-04T21:43:45.571Z,5.44
2022-11-04T21:46:14.762Z,5.54
2022-11-04T21:48:42.853Z,5.60
2022-11-04T21:51:15.020Z,5.54
2022-11-04T21:53:42.101Z,5.67
2022-11-04T21:56:11.245Z,5.70
2022-11-04T21:58:38.658Z,5.72
2022-11-04T22:01:07.069Z,5.74
2022-11-04T22:03:34.371Z,5.73
2022-11-04T22:06:03.201Z,5.72
2022-11-04T22:08:31.633Z,5.73
2022-11-04T22:11:09.227Z,5.70
2022-11-04T22:13:36.257Z,5.64
2022-11-04T22:16:11.024Z,5.63
2022-11-04T22:18:37.798Z,5.55
2022-11-04T22:21:07.119Z,5.58
2022-11-04T22:23:35.329Z,5.57
2022-11-04T22:26:03.956Z,5.50
2022-11-04T22:28:31.536Z,5.43
2022-11-04T22:31:05.560Z,5.37
2022-11-04T22:33:32.473Z,5.30
2022-11-04T22:35:59.311Z,5.27
2022-11-04T22:38:26.080Z,5.32
2022-11-04T22:40:57.248Z,5.51
2022-11-04T22:43:25.110Z,5.46
2022-11-04T22:45:52.945Z,5.29
2022-11-04T22:48:19.769Z,5.23
2022-11-04T22:50:47.478Z,5.19
2022-11-04T22:53:14.892Z,5.28
2022-11-04T22:55:41.585Z,5.35
2022-11-04T22:58:08.342Z,5.52
2022-11-04T23:00:35.101Z,5.63
2022-11-04T23:03:01.975Z,5.61
2022-11-04T23:05:31.688Z,5.56
2022-11-04T23:08:00.343Z,5.49
2022-11-04T23:10:46.931Z,5.38
2022-11-04T23:13:32.312Z,5.36
2022-11-04T23:16:18.375Z,5.18
2022-11-04T23:18:51.298Z,5.20
2022-11-04T23:21:39.176Z,5.21
2022-11-04T23:24:25.060Z,5.15
2022-11-04T23:26:51.922Z,5.30
2022-11-04T23:29:37.178Z,5.31
2022-11-04T23:32:04.253Z,5.26
2022-11-04T23:34:49.943Z,5.17
2022-11-04T23:37:17.356Z,5.05
2022-11-04T23:39:46.330Z,5.12
2022-11-04T23:42:21.310Z,5.03
2022-11-04T23:45:13.990Z,4.86
2022-11-04T23:48:01.573Z,4.80
2022-11-04T23:50:49.817Z,4.81
2022-11-04T23:53:36.835Z,4.79
2022-11-04T23:56:22.975Z,4.71
2022-11-04T23:59:08.645Z,4.60
